地図

経路データ

SID SEASON NUMBER BASIN SUBBASIN NAME ISO_TIME NATURE LAT LON WMO_WIND WMO_PRES WMO_AGENCY TRACK_TYPE DIST2LAND LANDFALL IFLAG USA_AGENCY USA_ATCF_ID USA_LAT USA_LON USA_RECORD USA_STATUS USA_WIND USA_PRES USA_SSHS USA_R34_NE USA_R34_SE USA_R34_SW USA_R34_NW USA_R50_NE USA_R50_SE USA_R50_SW USA_R50_NW USA_R64_NE USA_R64_SE USA_R64_SW USA_R64_NW USA_POCI USA_ROCI USA_RMW USA_EYE TOKYO_LAT TOKYO_LON TOKYO_GRADE TOKYO_WIND TOKYO_PRES TOKYO_R50_DIR TOKYO_R50_LONG TOKYO_R50_SHORT TOKYO_R30_DIR TOKYO_R30_LONG TOKYO_R30_SHORT TOKYO_LAND CMA_LAT CMA_LON CMA_CAT CMA_WIND CMA_PRES HKO_LAT HKO_LON HKO_CAT HKO_WIND HKO_PRES NEWDELHI_LAT NEWDELHI_LON NEWDELHI_GRADE NEWDELHI_WIND NEWDELHI_PRES NEWDELHI_CI NEWDELHI_DP NEWDELHI_POCI REUNION_LAT REUNION_LON REUNION_TYPE REUNION_WIND REUNION_PRES REUNION_TNUM REUNION_CI REUNION_RMW REUNION_R34_NE REUNION_R34_SE REUNION_R34_SW REUNION_R34_NW REUNION_R50_NE REUNION_R50_SE REUNION_R50_SW REUNION_R50_NW REUNION_R64_NE REUNION_R64_SE REUNION_R64_SW REUNION_R64_NW BOM_LAT BOM_LON BOM_TYPE BOM_WIND BOM_PRES BOM_TNUM BOM_CI BOM_RMW BOM_R34_NE BOM_R34_SE BOM_R34_SW BOM_R34_NW BOM_R50_NE BOM_R50_SE BOM_R50_SW BOM_R50_NW BOM_R64_NE BOM_R64_SE BOM_R64_SW BOM_R64_NW BOM_ROCI BOM_POCI BOM_EYE BOM_POS_METHOD BOM_PRES_METHOD NADI_LAT NADI_LON NADI_CAT NADI_WIND NADI_PRES WELLINGTON_LAT WELLINGTON_LON WELLINGTON_WIND WELLINGTON_PRES DS824_LAT DS824_LON DS824_STAGE DS824_WIND DS824_PRES TD9636_LAT TD9636_LON TD9636_STAGE TD9636_WIND TD9636_PRES TD9635_LAT TD9635_LON TD9635_WIND TD9635_PRES TD9635_ROCI NEUMANN_LAT NEUMANN_LON NEUMANN_CLASS NEUMANN_WIND NEUMANN_PRES MLC_LAT MLC_LON MLC_CLASS MLC_WIND MLC_PRES USA_GUST BOM_GUST BOM_GUST_PER REUNION_GUST REUNION_GUST_PER USA_SEAHGT USA_SEARAD_NE USA_SEARAD_SE USA_SEARAD_SW USA_SEARAD_NW STORM_SPEED STORM_DIR
1920198N12133 1920 24 WP MM NOT_NAMED 1920-07-16 10:00:00 NR 12.0000 132.700 main 760 729 __________O___ -1 12.0000 132.700 7 10 298
1920198N12133 1920 24 WP MM NOT_NAMED 1920-07-16 12:00:00 NR 12.1624 132.384 main 731 682 __________P___ -1 12.1624 132.384 7 10 298
1920198N12133 1920 24 WP MM NOT_NAMED 1920-07-16 15:00:00 NR 12.4010 131.916 main 682 646 __________P___ -1 12.4010 131.916 7 10 297
1920198N12133 1920 24 WP MM NOT_NAMED 1920-07-16 18:00:00 NR 12.6277 131.464 main 646 600 __________P___ -1 12.6277 131.464 7 10 297
1920198N12133 1920 24 WP MM NOT_NAMED 1920-07-16 21:00:00 NR 12.8359 131.036 main 600 591 __________P___ -1 12.8359 131.036 7 9 296
1920198N12133 1920 24 WP MM NOT_NAMED 1920-07-16 22:00:00 NR 12.9000 130.900 main 591 560 __________O___ -1 12.9000 130.900 7 9 296
1920198N12133 1920 24 WP MM NOT_NAMED 1920-07-17 00:00:00 NR 13.0200 130.641 main 560 532 __________P___ -1 13.0200 130.641 7 8 296
1920198N12133 1920 24 WP MM NOT_NAMED 1920-07-17 03:00:00 NR 13.1875 130.285 main 532 503 __________P___ -1 13.1875 130.285 7 7 297
1920198N12133 1920 24 WP MM NOT_NAMED 1920-07-17 06:00:00 NR 13.3536 129.966 main 506 478 __________P___ -1 13.3536 129.966 7 7 301
1920198N12133 1920 24 WP MM NOT_NAMED 1920-07-17 09:00:00 NR 13.5340 129.685 main 478 471 __________P___ -1 13.5340 129.685 7 7 305
1920198N12133 1920 24 WP MM NOT_NAMED 1920-07-17 10:00:00 NR 13.6000 129.600 main 471 455 __________O___ -1 13.6000 129.600 7 7 309
1920198N12133 1920 24 WP MM NOT_NAMED 1920-07-17 12:00:00 NR 13.7389 129.422 main 455 443 __________P___ -1 13.7389 129.422 7 7 312
1920198N12133 1920 24 WP MM NOT_NAMED 1920-07-17 15:00:00 NR 13.9662 129.187 main 448 434 __________P___ -1 13.9662 129.187 7 6 319
1920198N12133 1920 24 WP MM NOT_NAMED 1920-07-17 18:00:00 NR 14.2187 128.992 main 440 436 __________P___ -1 14.2187 128.992 7 6 328
1920198N12133 1920 24 WP MM NOT_NAMED 1920-07-17 21:00:00 NR 14.4995 128.840 main 440 440 __________P___ -1 14.4995 128.840 7 6 334
1920198N12133 1920 24 WP MM NOT_NAMED 1920-07-17 22:00:00 NR 14.6000 128.800 main 446 446 __________O___ -1 14.6000 128.800 7 7 342
1920198N12133 1920 24 WP MM NOT_NAMED 1920-07-18 00:00:00 NR 14.8183 128.732 main 452 452 __________P___ -1 14.8183 128.732 7 7 348
1920198N12133 1920 24 WP MM NOT_NAMED 1920-07-18 03:00:00 NR 15.1712 128.669 main 482 482 __________P___ -1 15.1712 128.669 7 7 353
1920198N12133 1920 24 WP MM NOT_NAMED 1920-07-18 06:00:00 NR 15.5352 128.634 main 486 490 __________P___ -1 15.5352 128.634 7 7 355
1920198N12133 1920 24 WP MM NOT_NAMED 1920-07-18 09:00:00 NR 15.8884 128.609 main 503 503 __________P___ -1 15.8884 128.609 7 7 355
1920198N12133 1920 24 WP MM NOT_NAMED 1920-07-18 10:00:00 NR 16.0000 128.600 main 508 508 __________O___ -1 16.0000 128.600 7 7 352
1920198N12133 1920 24 WP MM NOT_NAMED 1920-07-18 12:00:00 NR 16.2136 128.569 main 519 519 __________P___ -1 16.2136 128.569 7 6 352
1920198N12133 1920 24 WP MM NOT_NAMED 1920-07-18 15:00:00 NR 16.5153 128.523 main 527 527 __________P___ -1 16.5153 128.523 7 6 351
1920198N12133 1920 24 WP MM NOT_NAMED 1920-07-18 18:00:00 NR 16.7891 128.475 main 546 544 __________P___ -1 16.7891 128.475 7 5 350
1920198N12133 1920 24 WP MM NOT_NAMED 1920-07-18 21:00:00 NR 17.0288 128.420 main 551 551 __________P___ -1 17.0288 128.420 7 5 347
1920198N12133 1920 24 WP MM NOT_NAMED 1920-07-18 22:00:00 NR 17.1000 128.400 main 558 558 __________O___ -1 17.1000 128.400 7 4 344
1920198N12133 1920 24 WP MM NOT_NAMED 1920-07-19 00:00:00 NR 17.2259 128.361 main 565 565 __________P___ -1 17.2259 128.361 7 4 341
1920198N12133 1920 24 WP MM NOT_NAMED 1920-07-19 03:00:00 NR 17.3832 128.296 main 572 572 __________P___ -1 17.3832 128.296 7 3 336
1920198N12133 1920 24 WP MM NOT_NAMED 1920-07-19 06:00:00 NR 17.5192 128.221 main 572 572 __________P___ -1 17.5192 128.221 7 3 331
1920198N12133 1920 24 WP MM NOT_NAMED 1920-07-19 09:00:00 NR 17.6528 128.133 main 580 580 __________P___ -1 17.6528 128.133 7 3 328
1920198N12133 1920 24 WP MM NOT_NAMED 1920-07-19 10:00:00 NR 17.7000 128.100 main 580 580 __________O___ -1 17.7000 128.100 7 4 332
1920198N12133 1920 24 WP MM NOT_NAMED 1920-07-19 12:00:00 NR 17.8240 128.036 main 580 580 __________P___ -1 17.8240 128.036 7 4 333
1920198N12133 1920 24 WP MM NOT_NAMED 1920-07-19 15:00:00 NR 18.0167 127.928 main 583 575 __________P___ -1 18.0167 127.928 7 4 329
1920198N12133 1920 24 WP MM NOT_NAMED 1920-07-19 18:00:00 NR 18.2007 127.801 main 577 569 __________P___ -1 18.2007 127.801 7 4 323
1920198N12133 1920 24 WP MM NOT_NAMED 1920-07-19 21:00:00 NR 18.3572 127.654 main 569 559 __________P___ -1 18.3572 127.654 7 4 317
1920198N12133 1920 24 WP MM NOT_NAMED 1920-07-19 22:00:00 NR 18.4000 127.600 main 559 548 __________O___ -1 18.4000 127.600 7 4 300
1920198N12133 1920 24 WP MM NOT_NAMED 1920-07-20 00:00:00 NR 18.4541 127.476 main 548 527 __________P___ -1 18.4541 127.476 7 4 288
1920198N12133 1920 24 WP MM NOT_NAMED 1920-07-20 03:00:00 NR 18.5035 127.270 main 527 506 __________P___ -1 18.5035 127.270 7 4 282
1920198N12133 1920 24 WP MM NOT_NAMED 1920-07-20 06:00:00 NR 18.5369 127.059 main 506 485 __________P___ -1 18.5369 127.059 7 4 281
1920198N12133 1920 24 WP MM NOT_NAMED 1920-07-20 09:00:00 NR 18.5795 126.860 main 485 475 __________P___ -1 18.5795 126.860 7 4 284
1920198N12133 1920 24 WP MM NOT_NAMED 1920-07-20 10:00:00 NR 18.6000 126.800 main 475 464 __________O___ -1 18.6000 126.800 7 3 300
1920198N12133 1920 24 WP MM NOT_NAMED 1920-07-20 12:00:00 NR 18.6474 126.738 main 464 465 __________P___ -1 18.6474 126.738 7 2 318
1920198N12133 1920 24 WP MM NOT_NAMED 1920-07-20 15:00:00 NR 18.7372 126.666 main 465 455 __________P___ -1 18.7372 126.666 7 3 323
1920198N12133 1920 24 WP MM NOT_NAMED 1920-07-20 18:00:00 NR 18.8607 126.568 main 456 437 __________P___ -1 18.8607 126.568 7 4 318
1920198N12133 1920 24 WP MM NOT_NAMED 1920-07-20 21:00:00 NR 19.0308 126.388 main 437 428 __________P___ -1 19.0308 126.388 7 5 313
1920198N12133 1920 24 WP MM NOT_NAMED 1920-07-20 22:00:00 NR 19.1000 126.300 main 428 409 __________O___ -1 19.1000 126.300 7 8 309
1920198N12133 1920 24 WP MM NOT_NAMED 1920-07-21 00:00:00 NR 19.2841 126.053 main 412 372 __________P___ -1 19.2841 126.053 7 10 307
1920198N12133 1920 24 WP MM NOT_NAMED 1920-07-21 03:00:00 NR 19.6046 125.588 main 372 338 __________P___ -1 19.6046 125.588 7 11 304
1920198N12133 1920 24 WP MM NOT_NAMED 1920-07-21 06:00:00 NR 19.9338 125.050 main 338 306 __________P___ -1 19.9338 125.050 7 12 301
1920198N12133 1920 24 WP MM NOT_NAMED 1920-07-21 09:00:00 NR 20.2217 124.486 main 306 298 __________P___ -1 20.2217 124.486 7 12 297
1920198N12133 1920 24 WP MM NOT_NAMED 1920-07-21 10:00:00 NR 20.3000 124.300 main 298 279 __________O___ -1 20.3000 124.300 7 11 290
1920198N12133 1920 24 WP MM NOT_NAMED 1920-07-21 12:00:00 NR 20.4093 123.945 main 279 261 __________P___ -1 20.4093 123.945 7 10 285
1920198N12133 1920 24 WP MM NOT_NAMED 1920-07-21 15:00:00 NR 20.5168 123.413 main 261 253 __________P___ -1 20.5168 123.413 7 10 280
1920198N12133 1920 24 WP MM NOT_NAMED 1920-07-21 18:00:00 NR 20.5729 122.903 main 253 212 __________P___ -1 20.5729 122.903 7 9 275
1920198N12133 1920 24 WP MM NOT_NAMED 1920-07-21 21:00:00 NR 20.5962 122.440 main 212 205 __________P___ -1 20.5962 122.440 7 8 273
1920198N12133 1920 24 WP MM NOT_NAMED 1920-07-21 22:00:00 NR 20.6000 122.300 main 205 191 __________O___ -1 20.6000 122.300 7 7 273
1920198N12133 1920 24 WP MM NOT_NAMED 1920-07-22 00:00:00 NR 20.6166 122.051 main 191 167 __________P___ -1 20.6166 122.051 7 6 272
1920198N12133 1920 24 WP MM NOT_NAMED 1920-07-22 03:00:00 NR 20.6230 121.729 main 167 154 __________P___ -1 20.6230 121.729 7 6 270
1920198N12133 1920 24 WP MM NOT_NAMED 1920-07-22 06:00:00 NR 20.6156 121.448 main 154 148 __________P___ -1 20.6156 121.448 7 5 268
1920198N12133 1920 24 WP MM NOT_NAMED 1920-07-22 09:00:00 NR 20.6035 121.187 main 148 146 __________P___ -1 20.6035 121.187 7 5 267
1920198N12133 1920 24 WP MM NOT_NAMED 1920-07-22 10:00:00 NR 20.6000 121.100 main 146 145 __________O___ -1 20.6000 121.100 7 5 269
1920198N12133 1920 24 WP MM NOT_NAMED 1920-07-22 12:00:00 NR 20.5999 120.906 main 145 145 __________P___ -1 20.5999 120.906 7 5 270
1920198N12133 1920 24 WP MM NOT_NAMED 1920-07-22 15:00:00 NR 20.5999 120.620 main 145 145 __________P___ -1 20.5999 120.620 7 5 270
1920198N12133 1920 24 WP MM NOT_NAMED 1920-07-22 18:00:00 NR 20.5999 120.345 main 151 151 __________P___ -1 20.5999 120.345 7 5 270
1920198N12133 1920 24 WP MM NOT_NAMED 1920-07-22 21:00:00 NR 20.6000 120.084 main 158 158 __________P___ -1 20.6000 120.084 7 5 270
1920198N12133 1920 24 WP MM NOT_NAMED 1920-07-22 22:00:00 NR 20.6000 120.000 main 162 162 __________O___ -1 20.6000 120.000 7 5 268
1920198N12133 1920 24 WP MM NOT_NAMED 1920-07-23 00:00:00 NR 20.5920 119.841 main 172 172 __________P___ -1 20.5920 119.841 7 4 267
1920198N12133 1920 24 WP MM NOT_NAMED 1920-07-23 03:00:00 NR 20.5799 119.615 main 184 184 __________P___ -1 20.5799 119.615 7 4 268
1920198N12133 1920 24 WP MM NOT_NAMED 1920-07-23 06:00:00 NR 20.5760 119.397 main 198 198 __________P___ -1 20.5760 119.397 7 4 271
1920198N12133 1920 24 WP MM NOT_NAMED 1920-07-23 09:00:00 NR 20.5899 119.176 main 212 212 __________P___ -1 20.5899 119.176 7 4 275
1920198N12133 1920 24 WP MM NOT_NAMED 1920-07-23 10:00:00 NR 20.6000 119.100 main 220 220 __________O___ -1 20.6000 119.100 7 5 277
1920198N12133 1920 24 WP MM NOT_NAMED 1920-07-23 12:00:00 NR 20.6199 118.923 main 236 236 __________P___ -1 20.6199 118.923 7 5 279
1920198N12133 1920 24 WP MM NOT_NAMED 1920-07-23 15:00:00 NR 20.6682 118.652 main 246 255 __________P___ -1 20.6682 118.652 7 5 284
1920198N12133 1920 24 WP MM NOT_NAMED 1920-07-23 18:00:00 NR 20.7444 118.391 main 273 268 __________P___ -1 20.7444 118.391 7 5 292
1920198N12133 1920 24 WP MM NOT_NAMED 1920-07-23 21:00:00 NR 20.8546 118.164 main 281 277 __________P___ -1 20.8546 118.164 7 5 300
1920198N12133 1920 24 WP MM NOT_NAMED 1920-07-23 22:00:00 NR 20.9000 118.100 main 277 262 __________O___ -1 20.9000 118.100 3 5 311
1920198N12133 1920 24 WP MM NOT_NAMED 1920-07-24 00:00:00 NR 21.0047 117.978 main 262 232 __________P___ -1 21.0047 117.978 3 5 320
1920198N12133 1920 24 WP MM NOT_NAMED 1920-07-24 03:00:00 NR 21.1933 117.833 main 232 208 __________P___ -1 21.1933 117.833 3 5 331
1920198N12133 1920 24 WP MM NOT_NAMED 1920-07-24 06:00:00 NR 21.4060 117.738 main 208 190 __________P___ -1 21.4060 117.738 3 5 344
1920198N12133 1920 24 WP MM NOT_NAMED 1920-07-24 09:00:00 NR 21.6271 117.699 main 190 182 __________P___ -1 21.6271 117.699 3 4 353
1920198N12133 1920 24 WP MM NOT_NAMED 1920-07-24 10:00:00 NR 21.7000 117.700 main 182 174 __________O___ -1 21.7000 117.700 4 4 8
1920198N12133 1920 24 WP MM NOT_NAMED 1920-07-24 12:00:00 NR 21.8148 117.703 main 174 159 __________P___ -1 21.8148 117.703 4 4 12
1920198N12133 1920 24 WP MM NOT_NAMED 1920-07-24 15:00:00 NR 21.9868 117.757 main 167 160 __________P___ -1 21.9868 117.757 4 4 23
1920198N12133 1920 24 WP MM NOT_NAMED 1920-07-24 18:00:00 NR 22.1778 117.869 main 163 150 __________P___ -1 22.1778 117.869 4 5 31
1920198N12133 1920 24 WP MM NOT_NAMED 1920-07-24 21:00:00 NR 22.4098 118.034 main 150 143 __________P___ -1 22.4098 118.034 4 6 33
1920198N12133 1920 24 WP MM NOT_NAMED 1920-07-24 22:00:00 NR 22.5000 118.100 main 143 127 __________O___ -1 22.5000 118.100 4 7 33
1920198N12133 1920 24 WP MM NOT_NAMED 1920-07-25 00:00:00 NR 22.7128 118.248 main 127 113 __________P___ -1 22.7128 118.248 4 8 34
1920198N12133 1920 24 WP MM NOT_NAMED 1920-07-25 03:00:00 NR 23.0762 118.515 main 113 105 __________P___ -1 23.0762 118.515 4 9 34
1920198N12133 1920 24 WP MM NOT_NAMED 1920-07-25 06:00:00 NR 23.4702 118.810 main 107 84 __________P___ -1 23.4702 118.810 4 10 34
1920198N12133 1920 24 WP MM NOT_NAMED 1920-07-25 09:00:00 NR 23.8698 119.106 main 84 82 __________P___ -1 23.8698 119.106 4 10 34
1920198N12133 1920 24 WP MM NOT_NAMED 1920-07-25 10:00:00 NR 24.0000 119.200 main 82 75 __________O___ -1 24.0000 119.200 4 9 33
1920198N12133 1920 24 WP MM NOT_NAMED 1920-07-25 12:00:00 NR 24.2519 119.376 main 78 68 __________P___ -1 24.2519 119.376 4 9 32
1920198N12133 1920 24 WP MM NOT_NAMED 1920-07-25 15:00:00 NR 24.6114 119.614 main 68 39 __________P___ -1 24.6114 119.614 4 8 30
1920198N12133 1920 24 WP MM NOT_NAMED 1920-07-25 18:00:00 NR 24.9550 119.829 main 39 32 __________P___ -1 24.9550 119.829 4 8 29
1920198N12133 1920 24 WP MM NOT_NAMED 1920-07-25 21:00:00 NR 25.2894 120.033 main 32 32 __________P___ -1 25.2894 120.033 4 8 29
1920198N12133 1920 24 WP MM NOT_NAMED 1920-07-25 22:00:00 NR 25.4000 120.100 main 40 __________O___ -1 25.4000 120.100 4 8 28

デジタル台風データ・検索

IBTrACS Databaseについて

本データベースは、米国NOAAが公開する1842年以降の世界の熱帯低気圧のベストトラックデータアーカイブInternational Best Track Archive for Climate Stewardship (IBTrACS)を、ウェブで閲覧しやすい形式に変換したものです。

最終更新日:2021-10-21